North Kingsville, Ohio
Current Conditions -  °F | °C
As of 6:53 AM on Tuesday 21 Oct 2014 (Local Time) from KHZY Reporting Station
Overcast Overcast  
Wind Chill: 51°   Ceiling: 3300
Heat Index: 51°   Visibility: 10mi
Dew Point: 48°   Wind: 5mph
Humidity: 89%   Direction: 330°NNW
Pressure: 29.85"   Gusts: NA
Location:  41.91°N, 80.69°W
Report Text: KHZY 211053Z AUTO 33004KT 10SM FEW014 BKN033 OVC055 11/09 A2985 RMK AO2 SLP109 T01060089
Loading
Personal Weather Stations






























Interactive Weather Map
Tropical Storm Tracking
New forecast layout! Learn more

10-Day Weather Forecast

Advertisements
Track Severe Weather on mobile